sensor_id;sensor_type;location;lat;lon;timestamp;P1;durP1;ratioP1;P2;durP2;ratioP2
57856;SDS011;43683;48.650;9.290;2023-12-20T00:02:23;1.70;;;1.60;;
57856;SDS011;43683;48.650;9.290;2023-12-20T00:04:49;2.55;;;1.83;;
57856;SDS011;43683;48.650;9.290;2023-12-20T00:07:15;2.33;;;1.67;;
57856;SDS011;43683;48.650;9.290;2023-12-20T00:09:40;3.35;;;1.73;;
57856;SDS011;43683;48.650;9.290;2023-12-20T00:12:06;2.45;;;1.83;;
57856;SDS011;43683;48.650;9.290;2023-12-20T00:14:32;2.65;;;2.00;;
57856;SDS011;43683;48.650;9.290;2023-12-20T00:16:57;2.83;;;2.08;;
57856;SDS011;43683;48.650;9.290;2023-12-20T00:19:22;2.08;;;1.90;;
57856;SDS011;43683;48.650;9.290;2023-12-20T00:21:49;3.08;;;2.10;;
57856;SDS011;43683;48.650;9.290;2023-12-20T00:24:14;1.90;;;1.65;;
57856;SDS011;43683;48.650;9.290;2023-12-20T00:26:40;2.97;;;2.00;;
57856;SDS011;43683;48.650;9.290;2023-12-20T00:29:05;1.80;;;1.70;;
57856;SDS011;43683;48.650;9.290;2023-12-20T00:31:31;2.05;;;1.63;;
57856;SDS011;43683;48.650;9.290;2023-12-20T00:33:56;1.65;;;1.50;;
57856;SDS011;43683;48.650;9.290;2023-12-20T00:36:22;2.22;;;1.75;;
57856;SDS011;43683;48.650;9.290;2023-12-20T00:38:48;2.05;;;1.52;;
57856;SDS011;43683;48.650;9.290;2023-12-20T00:41:14;2.85;;;1.50;;
57856;SDS011;43683;48.650;9.290;2023-12-20T00:43:40;2.00;;;1.60;;
57856;SDS011;43683;48.650;9.290;2023-12-20T00:46:06;1.50;;;1.38;;
57856;SDS011;43683;48.650;9.290;2023-12-20T00:48:31;1.80;;;1.40;;
57856;SDS011;43683;48.650;9.290;2023-12-20T00:50:57;1.50;;;1.35;;
57856;SDS011;43683;48.650;9.290;2023-12-20T00:53:22;1.50;;;1.40;;
57856;SDS011;43683;48.650;9.290;2023-12-20T00:55:48;1.67;;;1.50;;
57856;SDS011;43683;48.650;9.290;2023-12-20T00:58:15;1.37;;;1.27;;
57856;SDS011;43683;48.650;9.290;2023-12-20T01:00:40;1.60;;;1.50;;
57856;SDS011;43683;48.650;9.290;2023-12-20T01:03:07;2.85;;;1.48;;
57856;SDS011;43683;48.650;9.290;2023-12-20T01:05:33;1.58;;;1.48;;
57856;SDS011;43683;48.650;9.290;2023-12-20T01:07:58;1.50;;;1.40;;
57856;SDS011;43683;48.650;9.290;2023-12-20T01:10:24;1.63;;;1.40;;
57856;SDS011;43683;48.650;9.290;2023-12-20T01:12:53;1.90;;;1.70;;
57856;SDS011;43683;48.650;9.290;2023-12-20T01:15:18;2.25;;;1.60;;
57856;SDS011;43683;48.650;9.290;2023-12-20T01:17:44;1.58;;;1.48;;
57856;SDS011;43683;48.650;9.290;2023-12-20T01:20:09;3.47;;;1.70;;
57856;SDS011;43683;48.650;9.290;2023-12-20T01:22:35;3.40;;;2.05;;
57856;SDS011;43683;48.650;9.290;2023-12-20T01:25:01;1.98;;;1.70;;
57856;SDS011;43683;48.650;9.290;2023-12-20T01:27:27;2.60;;;1.40;;
57856;SDS011;43683;48.650;9.290;2023-12-20T01:29:53;2.83;;;1.58;;
57856;SDS011;43683;48.650;9.290;2023-12-20T01:32:19;1.98;;;1.48;;
57856;SDS011;43683;48.650;9.290;2023-12-20T01:34:44;1.60;;;1.50;;
57856;SDS011;43683;48.650;9.290;2023-12-20T01:37:10;2.17;;;1.50;;
57856;SDS011;43683;48.650;9.290;2023-12-20T01:39:35;1.55;;;1.45;;
57856;SDS011;43683;48.650;9.290;2023-12-20T01:42:01;1.52;;;1.42;;
57856;SDS011;43683;48.650;9.290;2023-12-20T01:44:27;1.60;;;1.50;;
57856;SDS011;43683;48.650;9.290;2023-12-20T01:46:52;1.75;;;1.50;;
57856;SDS011;43683;48.650;9.290;2023-12-20T01:49:19;2.38;;;1.75;;
57856;SDS011;43683;48.650;9.290;2023-12-20T01:51:45;2.08;;;1.50;;
57856;SDS011;43683;48.650;9.290;2023-12-20T01:54:11;1.92;;;1.50;;
57856;SDS011;43683;48.650;9.290;2023-12-20T01:56:37;1.80;;;1.50;;
57856;SDS011;43683;48.650;9.290;2023-12-20T01:59:04;1.70;;;1.58;;
57856;SDS011;43683;48.650;9.290;2023-12-20T02:01:30;2.30;;;1.73;;
57856;SDS011;43683;48.650;9.290;2023-12-20T02:03:56;1.45;;;1.35;;
57856;SDS011;43683;48.650;9.290;2023-12-20T02:06:22;1.38;;;1.27;;
57856;SDS011;43683;48.650;9.290;2023-12-20T02:08:49;1.60;;;1.50;;
57856;SDS011;43683;48.650;9.290;2023-12-20T02:11:15;1.42;;;1.13;;
57856;SDS011;43683;48.650;9.290;2023-12-20T02:13:41;1.20;;;1.10;;
57856;SDS011;43683;48.650;9.290;2023-12-20T02:16:07;1.45;;;1.35;;
57856;SDS011;43683;48.650;9.290;2023-12-20T02:18:32;2.72;;;1.70;;
57856;SDS011;43683;48.650;9.290;2023-12-20T02:20:58;1.55;;;1.13;;
57856;SDS011;43683;48.650;9.290;2023-12-20T02:23:24;1.20;;;1.10;;
57856;SDS011;43683;48.650;9.290;2023-12-20T02:25:49;1.77;;;1.27;;
57856;SDS011;43683;48.650;9.290;2023-12-20T02:28:15;1.50;;;1.40;;
57856;SDS011;43683;48.650;9.290;2023-12-20T02:30:41;1.58;;;1.35;;
57856;SDS011;43683;48.650;9.290;2023-12-20T02:33:07;1.30;;;1.20;;
57856;SDS011;43683;48.650;9.290;2023-12-20T02:35:35;1.15;;;1.15;;
57856;SDS011;43683;48.650;9.290;2023-12-20T02:38:00;1.38;;;1.27;;
57856;SDS011;43683;48.650;9.290;2023-12-20T02:40:26;1.15;;;1.15;;
57856;SDS011;43683;48.650;9.290;2023-12-20T02:42:51;1.70;;;1.60;;
57856;SDS011;43683;48.650;9.290;2023-12-20T02:45:17;1.38;;;1.20;;
57856;SDS011;43683;48.650;9.290;2023-12-20T02:47:42;1.77;;;1.20;;
57856;SDS011;43683;48.650;9.290;2023-12-20T02:50:08;1.30;;;1.20;;
57856;SDS011;43683;48.650;9.290;2023-12-20T02:52:33;1.40;;;1.30;;
57856;SDS011;43683;48.650;9.290;2023-12-20T02:54:59;1.30;;;1.20;;
57856;SDS011;43683;48.650;9.290;2023-12-20T02:57:24;1.20;;;1.13;;
57856;SDS011;43683;48.650;9.290;2023-12-20T02:59:50;3.08;;;1.35;;
57856;SDS011;43683;48.650;9.290;2023-12-20T03:02:15;1.60;;;1.40;;
57856;SDS011;43683;48.650;9.290;2023-12-20T03:04:41;1.35;;;1.25;;
57856;SDS011;43683;48.650;9.290;2023-12-20T03:07:06;2.53;;;1.98;;
57856;SDS011;43683;48.650;9.290;2023-12-20T03:09:32;1.20;;;1.20;;
57856;SDS011;43683;48.650;9.290;2023-12-20T03:11:57;1.50;;;1.30;;
57856;SDS011;43683;48.650;9.290;2023-12-20T03:14:23;1.77;;;1.40;;
57856;SDS011;43683;48.650;9.290;2023-12-20T03:16:49;1.65;;;1.40;;
57856;SDS011;43683;48.650;9.290;2023-12-20T03:19:15;1.25;;;1.20;;
57856;SDS011;43683;48.650;9.290;2023-12-20T03:21:41;1.48;;;1.38;;
57856;SDS011;43683;48.650;9.290;2023-12-20T03:24:06;1.52;;;1.42;;
57856;SDS011;43683;48.650;9.290;2023-12-20T03:26:32;1.80;;;1.30;;
57856;SDS011;43683;48.650;9.290;2023-12-20T03:28:57;1.52;;;1.42;;
57856;SDS011;43683;48.650;9.290;2023-12-20T03:31:23;3.03;;;1.20;;
57856;SDS011;43683;48.650;9.290;2023-12-20T03:33:49;2.70;;;1.10;;
57856;SDS011;43683;48.650;9.290;2023-12-20T03:36:15;1.37;;;1.20;;
57856;SDS011;43683;48.650;9.290;2023-12-20T03:38:41;1.67;;;1.23;;
57856;SDS011;43683;48.650;9.290;2023-12-20T03:41:07;1.00;;;1.00;;
57856;SDS011;43683;48.650;9.290;2023-12-20T03:43:32;0.90;;;0.90;;
57856;SDS011;43683;48.650;9.290;2023-12-20T03:45:58;0.90;;;0.90;;
57856;SDS011;43683;48.650;9.290;2023-12-20T03:48:24;1.33;;;1.23;;
57856;SDS011;43683;48.650;9.290;2023-12-20T03:50:50;0.95;;;0.95;;
57856;SDS011;43683;48.650;9.290;2023-12-20T03:53:16;0.93;;;0.93;;
57856;SDS011;43683;48.650;9.290;2023-12-20T03:55:41;1.38;;;1.20;;
57856;SDS011;43683;48.650;9.290;2023-12-20T03:58:07;1.08;;;1.05;;
57856;SDS011;43683;48.650;9.290;2023-12-20T04:00:32;2.05;;;1.00;;
57856;SDS011;43683;48.650;9.290;2023-12-20T04:02:57;0.88;;;0.88;;
57856;SDS011;43683;48.650;9.290;2023-12-20T04:05:23;1.17;;;0.90;;
57856;SDS011;43683;48.650;9.290;2023-12-20T04:07:48;0.93;;;0.93;;
57856;SDS011;43683;48.650;9.290;2023-12-20T04:10:15;1.00;;;1.00;;
57856;SDS011;43683;48.650;9.290;2023-12-20T04:12:41;1.00;;;1.00;;
57856;SDS011;43683;48.650;9.290;2023-12-20T04:15:06;1.05;;;1.00;;
57856;SDS011;43683;48.650;9.290;2023-12-20T04:17:34;0.90;;;0.90;;
57856;SDS011;43683;48.650;9.290;2023-12-20T04:20:00;0.82;;;0.80;;
57856;SDS011;43683;48.650;9.290;2023-12-20T04:22:26;0.80;;;0.80;;
57856;SDS011;43683;48.650;9.290;2023-12-20T04:24:52;0.85;;;0.85;;
57856;SDS011;43683;48.650;9.290;2023-12-20T04:27:17;0.90;;;0.90;;
57856;SDS011;43683;48.650;9.290;2023-12-20T04:29:43;0.80;;;0.80;;
57856;SDS011;43683;48.650;9.290;2023-12-20T04:32:08;0.90;;;0.90;;
57856;SDS011;43683;48.650;9.290;2023-12-20T04:34:34;0.90;;;0.85;;
57856;SDS011;43683;48.650;9.290;2023-12-20T04:36:59;1.10;;;1.00;;
57856;SDS011;43683;48.650;9.290;2023-12-20T04:39:26;0.80;;;0.80;;
57856;SDS011;43683;48.650;9.290;2023-12-20T04:41:52;0.90;;;0.90;;
57856;SDS011;43683;48.650;9.290;2023-12-20T04:44:17;1.75;;;0.90;;
57856;SDS011;43683;48.650;9.290;2023-12-20T04:46:43;1.48;;;1.38;;
57856;SDS011;43683;48.650;9.290;2023-12-20T04:49:09;4.05;;;1.00;;
57856;SDS011;43683;48.650;9.290;2023-12-20T04:51:34;1.58;;;1.48;;
57856;SDS011;43683;48.650;9.290;2023-12-20T04:54:00;0.95;;;0.95;;
57856;SDS011;43683;48.650;9.290;2023-12-20T04:56:26;0.80;;;0.80;;
57856;SDS011;43683;48.650;9.290;2023-12-20T04:58:52;1.95;;;1.17;;
57856;SDS011;43683;48.650;9.290;2023-12-20T05:01:17;0.80;;;0.80;;
57856;SDS011;43683;48.650;9.290;2023-12-20T05:03:43;0.70;;;0.70;;
57856;SDS011;43683;48.650;9.290;2023-12-20T05:06:09;0.90;;;0.90;;
57856;SDS011;43683;48.650;9.290;2023-12-20T05:08:35;0.88;;;0.88;;
57856;SDS011;43683;48.650;9.290;2023-12-20T05:11:00;0.80;;;0.80;;
57856;SDS011;43683;48.650;9.290;2023-12-20T05:13:26;0.80;;;0.80;;
57856;SDS011;43683;48.650;9.290;2023-12-20T05:15:52;1.08;;;0.98;;
57856;SDS011;43683;48.650;9.290;2023-12-20T05:18:17;1.80;;;1.20;;
57856;SDS011;43683;48.650;9.290;2023-12-20T05:20:43;1.08;;;1.08;;
57856;SDS011;43683;48.650;9.290;2023-12-20T05:23:08;1.10;;;1.00;;
57856;SDS011;43683;48.650;9.290;2023-12-20T05:25:34;0.90;;;0.90;;
57856;SDS011;43683;48.650;9.290;2023-12-20T05:27:59;1.58;;;1.45;;
57856;SDS011;43683;48.650;9.290;2023-12-20T05:30:25;1.30;;;1.20;;
57856;SDS011;43683;48.650;9.290;2023-12-20T05:32:51;1.23;;;1.13;;
57856;SDS011;43683;48.650;9.290;2023-12-20T05:35:17;2.22;;;1.55;;
57856;SDS011;43683;48.650;9.290;2023-12-20T05:37:42;2.03;;;1.50;;
57856;SDS011;43683;48.650;9.290;2023-12-20T05:40:08;1.17;;;1.08;;
57856;SDS011;43683;48.650;9.290;2023-12-20T05:42:37;0.80;;;0.80;;
57856;SDS011;43683;48.650;9.290;2023-12-20T05:45:03;1.35;;;0.90;;
57856;SDS011;43683;48.650;9.290;2023-12-20T05:47:29;1.10;;;0.70;;
57856;SDS011;43683;48.650;9.290;2023-12-20T05:49:54;0.80;;;0.80;;
57856;SDS011;43683;48.650;9.290;2023-12-20T05:52:20;0.80;;;0.80;;
57856;SDS011;43683;48.650;9.290;2023-12-20T05:54:45;0.90;;;0.90;;
57856;SDS011;43683;48.650;9.290;2023-12-20T05:57:11;0.90;;;0.90;;
57856;SDS011;43683;48.650;9.290;2023-12-20T05:59:36;1.00;;;0.90;;
57856;SDS011;43683;48.650;9.290;2023-12-20T06:02:03;1.65;;;0.90;;
57856;SDS011;43683;48.650;9.290;2023-12-20T06:04:29;1.00;;;1.00;;
57856;SDS011;43683;48.650;9.290;2023-12-20T06:06:55;1.00;;;0.90;;
57856;SDS011;43683;48.650;9.290;2023-12-20T06:09:20;1.13;;;0.90;;
57856;SDS011;43683;48.650;9.290;2023-12-20T06:11:46;0.95;;;0.95;;
57856;SDS011;43683;48.650;9.290;2023-12-20T06:14:11;0.90;;;0.90;;
57856;SDS011;43683;48.650;9.290;2023-12-20T06:16:37;1.00;;;1.00;;
57856;SDS011;43683;48.650;9.290;2023-12-20T06:19:02;0.90;;;0.90;;
57856;SDS011;43683;48.650;9.290;2023-12-20T06:21:28;1.38;;;1.02;;
57856;SDS011;43683;48.650;9.290;2023-12-20T06:23:54;1.10;;;1.10;;
57856;SDS011;43683;48.650;9.290;2023-12-20T06:26:19;1.20;;;1.10;;
57856;SDS011;43683;48.650;9.290;2023-12-20T06:28:45;1.00;;;1.00;;
57856;SDS011;43683;48.650;9.290;2023-12-20T06:31:11;2.50;;;1.67;;
57856;SDS011;43683;48.650;9.290;2023-12-20T06:33:36;1.25;;;1.25;;
57856;SDS011;43683;48.650;9.290;2023-12-20T06:36:02;1.13;;;1.13;;
57856;SDS011;43683;48.650;9.290;2023-12-20T06:38:28;1.00;;;1.00;;
57856;SDS011;43683;48.650;9.290;2023-12-20T06:40:54;1.35;;;1.25;;
57856;SDS011;43683;48.650;9.290;2023-12-20T06:43:20;1.00;;;1.00;;
57856;SDS011;43683;48.650;9.290;2023-12-20T06:45:45;1.42;;;1.10;;
57856;SDS011;43683;48.650;9.290;2023-12-20T06:48:11;3.95;;;1.50;;
57856;SDS011;43683;48.650;9.290;2023-12-20T06:50:38;1.70;;;1.45;;
57856;SDS011;43683;48.650;9.290;2023-12-20T06:53:05;1.30;;;1.20;;
57856;SDS011;43683;48.650;9.290;2023-12-20T06:55:32;1.60;;;1.50;;
57856;SDS011;43683;48.650;9.290;2023-12-20T06:57:58;3.45;;;1.73;;
57856;SDS011;43683;48.650;9.290;2023-12-20T07:00:24;2.70;;;2.00;;
57856;SDS011;43683;48.650;9.290;2023-12-20T07:02:50;4.90;;;3.08;;
57856;SDS011;43683;48.650;9.290;2023-12-20T07:05:16;5.60;;;3.13;;
57856;SDS011;43683;48.650;9.290;2023-12-20T07:07:44;5.57;;;2.25;;
57856;SDS011;43683;48.650;9.290;2023-12-20T07:10:10;4.40;;;1.98;;
57856;SDS011;43683;48.650;9.290;2023-12-20T07:12:36;1.40;;;1.20;;
57856;SDS011;43683;48.650;9.290;2023-12-20T07:15:01;2.90;;;1.30;;
57856;SDS011;43683;48.650;9.290;2023-12-20T07:17:27;1.30;;;1.20;;
57856;SDS011;43683;48.650;9.290;2023-12-20T07:19:53;1.35;;;1.25;;
57856;SDS011;43683;48.650;9.290;2023-12-20T07:22:18;2.80;;;1.55;;
57856;SDS011;43683;48.650;9.290;2023-12-20T07:24:44;3.78;;;1.92;;
57856;SDS011;43683;48.650;9.290;2023-12-20T07:27:09;2.20;;;2.00;;
57856;SDS011;43683;48.650;9.290;2023-12-20T07:29:35;3.47;;;2.10;;
57856;SDS011;43683;48.650;9.290;2023-12-20T07:32:00;2.90;;;2.03;;
57856;SDS011;43683;48.650;9.290;2023-12-20T07:34:25;3.72;;;2.20;;
57856;SDS011;43683;48.650;9.290;2023-12-20T07:36:51;4.53;;;2.50;;
57856;SDS011;43683;48.650;9.290;2023-12-20T07:39:16;2.60;;;1.83;;
57856;SDS011;43683;48.650;9.290;2023-12-20T07:41:42;2.92;;;1.83;;
57856;SDS011;43683;48.650;9.290;2023-12-20T07:44:07;1.95;;;1.80;;
57856;SDS011;43683;48.650;9.290;2023-12-20T07:46:33;1.60;;;1.50;;
57856;SDS011;43683;48.650;9.290;2023-12-20T07:48:58;1.85;;;1.65;;
57856;SDS011;43683;48.650;9.290;2023-12-20T07:51:24;1.95;;;1.80;;
57856;SDS011;43683;48.650;9.290;2023-12-20T07:53:51;1.90;;;1.60;;
57856;SDS011;43683;48.650;9.290;2023-12-20T07:56:17;4.15;;;2.10;;
57856;SDS011;43683;48.650;9.290;2023-12-20T07:58:44;1.77;;;1.65;;
57856;SDS011;43683;48.650;9.290;2023-12-20T08:01:10;2.25;;;1.50;;
57856;SDS011;43683;48.650;9.290;2023-12-20T08:03:36;1.17;;;1.00;;
57856;SDS011;43683;48.650;9.290;2023-12-20T08:06:02;1.20;;;1.10;;
57856;SDS011;43683;48.650;9.290;2023-12-20T08:08:28;1.00;;;1.00;;
57856;SDS011;43683;48.650;9.290;2023-12-20T08:10:54;1.85;;;1.38;;
57856;SDS011;43683;48.650;9.290;2023-12-20T08:13:19;1.30;;;1.20;;
57856;SDS011;43683;48.650;9.290;2023-12-20T08:15:50;1.20;;;1.10;;
57856;SDS011;43683;48.650;9.290;2023-12-20T08:18:15;1.15;;;1.13;;
57856;SDS011;43683;48.650;9.290;2023-12-20T08:20:41;1.88;;;1.02;;
57856;SDS011;43683;48.650;9.290;2023-12-20T08:23:06;1.77;;;1.38;;
57856;SDS011;43683;48.650;9.290;2023-12-20T08:25:32;1.38;;;1.20;;
57856;SDS011;43683;48.650;9.290;2023-12-20T08:27:57;1.88;;;1.55;;
57856;SDS011;43683;48.650;9.290;2023-12-20T08:30:22;2.17;;;1.65;;
57856;SDS011;43683;48.650;9.290;2023-12-20T08:32:48;2.05;;;1.80;;
57856;SDS011;43683;48.650;9.290;2023-12-20T08:35:14;2.63;;;2.25;;
57856;SDS011;43683;48.650;9.290;2023-12-20T08:37:39;5.57;;;2.92;;
57856;SDS011;43683;48.650;9.290;2023-12-20T08:40:05;4.95;;;3.13;;
57856;SDS011;43683;48.650;9.290;2023-12-20T08:42:31;4.28;;;2.50;;
57856;SDS011;43683;48.650;9.290;2023-12-20T08:44:57;2.88;;;2.40;;
57856;SDS011;43683;48.650;9.290;2023-12-20T08:47:25;5.25;;;3.13;;
57856;SDS011;43683;48.650;9.290;2023-12-20T08:49:51;4.68;;;3.30;;
57856;SDS011;43683;48.650;9.290;2023-12-20T08:52:21;4.07;;;2.88;;
57856;SDS011;43683;48.650;9.290;2023-12-20T08:54:50;4.28;;;3.00;;
57856;SDS011;43683;48.650;9.290;2023-12-20T08:57:18;5.07;;;2.97;;
57856;SDS011;43683;48.650;9.290;2023-12-20T08:59:48;4.10;;;3.30;;
57856;SDS011;43683;48.650;9.290;2023-12-20T09:02:14;5.35;;;3.35;;
57856;SDS011;43683;48.650;9.290;2023-12-20T09:04:40;4.80;;;3.28;;
57856;SDS011;43683;48.650;9.290;2023-12-20T09:07:06;6.40;;;4.20;;
57856;SDS011;43683;48.650;9.290;2023-12-20T09:09:32;5.90;;;4.00;;
57856;SDS011;43683;48.650;9.290;2023-12-20T09:11:58;6.72;;;3.70;;
57856;SDS011;43683;48.650;9.290;2023-12-20T09:14:24;6.60;;;3.65;;
57856;SDS011;43683;48.650;9.290;2023-12-20T09:16:49;5.68;;;3.22;;
57856;SDS011;43683;48.650;9.290;2023-12-20T09:19:16;6.60;;;3.03;;
57856;SDS011;43683;48.650;9.290;2023-12-20T09:21:42;6.32;;;2.88;;
57856;SDS011;43683;48.650;9.290;2023-12-20T09:24:07;3.80;;;2.35;;
57856;SDS011;43683;48.650;9.290;2023-12-20T09:26:33;4.45;;;2.47;;
57856;SDS011;43683;48.650;9.290;2023-12-20T09:28:59;4.30;;;2.08;;
57856;SDS011;43683;48.650;9.290;2023-12-20T09:31:25;3.40;;;2.40;;
57856;SDS011;43683;48.650;9.290;2023-12-20T09:33:51;3.05;;;2.15;;
57856;SDS011;43683;48.650;9.290;2023-12-20T09:36:16;2.83;;;2.30;;
57856;SDS011;43683;48.650;9.290;2023-12-20T09:38:42;3.67;;;2.10;;
57856;SDS011;43683;48.650;9.290;2023-12-20T09:41:07;3.75;;;1.95;;
57856;SDS011;43683;48.650;9.290;2023-12-20T09:43:34;4.55;;;1.90;;
57856;SDS011;43683;48.650;9.290;2023-12-20T09:46:02;3.58;;;2.00;;
57856;SDS011;43683;48.650;9.290;2023-12-20T09:48:31;3.38;;;1.75;;
57856;SDS011;43683;48.650;9.290;2023-12-20T09:50:57;4.18;;;2.45;;
57856;SDS011;43683;48.650;9.290;2023-12-20T09:53:23;1.95;;;1.50;;
57856;SDS011;43683;48.650;9.290;2023-12-20T09:55:54;4.72;;;1.98;;
57856;SDS011;43683;48.650;9.290;2023-12-20T09:58:25;5.60;;;1.70;;
57856;SDS011;43683;48.650;9.290;2023-12-20T10:00:50;3.25;;;2.00;;
57856;SDS011;43683;48.650;9.290;2023-12-20T10:03:17;1.67;;;1.57;;
57856;SDS011;43683;48.650;9.290;2023-12-20T10:05:49;2.33;;;1.55;;
57856;SDS011;43683;48.650;9.290;2023-12-20T10:08:17;2.95;;;1.85;;
57856;SDS011;43683;48.650;9.290;2023-12-20T10:10:46;1.98;;;1.48;;
57856;SDS011;43683;48.650;9.290;2023-12-20T10:13:11;3.38;;;1.73;;
57856;SDS011;43683;48.650;9.290;2023-12-20T10:15:38;3.65;;;1.55;;
57856;SDS011;43683;48.650;9.290;2023-12-20T10:18:04;3.55;;;1.65;;
57856;SDS011;43683;48.650;9.290;2023-12-20T10:20:30;2.10;;;1.90;;
57856;SDS011;43683;48.650;9.290;2023-12-20T10:22:57;6.13;;;1.50;;
57856;SDS011;43683;48.650;9.290;2023-12-20T10:25:23;2.70;;;1.85;;
57856;SDS011;43683;48.650;9.290;2023-12-20T10:27:49;4.25;;;1.80;;
57856;SDS011;43683;48.650;9.290;2023-12-20T10:30:33;3.72;;;1.70;;
57856;SDS011;43683;48.650;9.290;2023-12-20T10:32:58;4.18;;;1.80;;
57856;SDS011;43683;48.650;9.290;2023-12-20T10:35:24;2.72;;;1.90;;
57856;SDS011;43683;48.650;9.290;2023-12-20T10:37:49;3.38;;;1.55;;
57856;SDS011;43683;48.650;9.290;2023-12-20T10:40:19;2.08;;;1.50;;
57856;SDS011;43683;48.650;9.290;2023-12-20T10:42:45;2.63;;;1.70;;
57856;SDS011;43683;48.650;9.290;2023-12-20T10:45:12;3.38;;;1.50;;
57856;SDS011;43683;48.650;9.290;2023-12-20T10:47:38;3.80;;;1.35;;
57856;SDS011;43683;48.650;9.290;2023-12-20T10:50:05;1.83;;;1.65;;
57856;SDS011;43683;48.650;9.290;2023-12-20T10:52:32;4.20;;;1.40;;
57856;SDS011;43683;48.650;9.290;2023-12-20T10:55:00;3.80;;;1.55;;
57856;SDS011;43683;48.650;9.290;2023-12-20T10:57:26;3.25;;;1.60;;
57856;SDS011;43683;48.650;9.290;2023-12-20T10:59:53;1.48;;;1.30;;
57856;SDS011;43683;48.650;9.290;2023-12-20T11:02:19;2.67;;;1.58;;
57856;SDS011;43683;48.650;9.290;2023-12-20T11:04:53;4.65;;;1.63;;
57856;SDS011;43683;48.650;9.290;2023-12-20T11:07:35;2.50;;;1.48;;
57856;SDS011;43683;48.650;9.290;2023-12-20T11:12:44;3.38;;;1.23;;
57856;SDS011;43683;48.650;9.290;2023-12-20T11:15:16;3.17;;;1.33;;
57856;SDS011;43683;48.650;9.290;2023-12-20T11:17:44;2.42;;;1.52;;
57856;SDS011;43683;48.650;9.290;2023-12-20T11:20:11;3.78;;;2.20;;
57856;SDS011;43683;48.650;9.290;2023-12-20T11:22:37;3.33;;;1.65;;
57856;SDS011;43683;48.650;9.290;2023-12-20T11:25:07;4.20;;;1.77;;
57856;SDS011;43683;48.650;9.290;2023-12-20T11:27:35;2.63;;;1.55;;
57856;SDS011;43683;48.650;9.290;2023-12-20T11:30:02;2.95;;;1.73;;
57856;SDS011;43683;48.650;9.290;2023-12-20T11:32:31;4.57;;;1.85;;
57856;SDS011;43683;48.650;9.290;2023-12-20T11:35:00;4.78;;;2.63;;
57856;SDS011;43683;48.650;9.290;2023-12-20T11:37:41;3.25;;;1.70;;
57856;SDS011;43683;48.650;9.290;2023-12-20T11:40:13;3.83;;;2.10;;
57856;SDS011;43683;48.650;9.290;2023-12-20T11:45:09;2.17;;;1.45;;
57856;SDS011;43683;48.650;9.290;2023-12-20T11:47:35;3.55;;;1.70;;
57856;SDS011;43683;48.650;9.290;2023-12-20T11:50:01;3.38;;;1.38;;
57856;SDS011;43683;48.650;9.290;2023-12-20T11:52:29;2.58;;;1.42;;
57856;SDS011;43683;48.650;9.290;2023-12-20T11:54:55;2.63;;;1.45;;
57856;SDS011;43683;48.650;9.290;2023-12-20T11:57:20;5.20;;;2.10;;
57856;SDS011;43683;48.650;9.290;2023-12-20T11:59:46;3.78;;;1.70;;
57856;SDS011;43683;48.650;9.290;2023-12-20T12:02:12;4.85;;;1.75;;
57856;SDS011;43683;48.650;9.290;2023-12-20T12:04:38;1.52;;;1.42;;
57856;SDS011;43683;48.650;9.290;2023-12-20T12:07:06;3.42;;;1.50;;
57856;SDS011;43683;48.650;9.290;2023-12-20T12:09:32;4.57;;;1.80;;
57856;SDS011;43683;48.650;9.290;2023-12-20T12:11:58;5.25;;;1.90;;
57856;SDS011;43683;48.650;9.290;2023-12-20T12:14:23;3.65;;;1.63;;
57856;SDS011;43683;48.650;9.290;2023-12-20T12:16:49;3.88;;;1.75;;
57856;SDS011;43683;48.650;9.290;2023-12-20T12:19:22;4.18;;;1.90;;
57856;SDS011;43683;48.650;9.290;2023-12-20T12:21:48;4.78;;;1.83;;
57856;SDS011;43683;48.650;9.290;2023-12-20T12:24:14;4.15;;;2.20;;
57856;SDS011;43683;48.650;9.290;2023-12-20T12:26:40;2.60;;;1.40;;
57856;SDS011;43683;48.650;9.290;2023-12-20T12:29:08;1.30;;;1.20;;
57856;SDS011;43683;48.650;9.290;2023-12-20T12:31:34;3.75;;;2.20;;
57856;SDS011;43683;48.650;9.290;2023-12-20T12:34:00;4.18;;;1.80;;
57856;SDS011;43683;48.650;9.290;2023-12-20T12:36:27;3.95;;;1.63;;
57856;SDS011;43683;48.650;9.290;2023-12-20T12:38:55;3.72;;;2.00;;
57856;SDS011;43683;48.650;9.290;2023-12-20T12:41:22;5.53;;;2.15;;
57856;SDS011;43683;48.650;9.290;2023-12-20T12:43:48;1.98;;;1.60;;
57856;SDS011;43683;48.650;9.290;2023-12-20T12:46:14;9.02;;;1.92;;
57856;SDS011;43683;48.650;9.290;2023-12-20T12:48:39;2.15;;;1.67;;
57856;SDS011;43683;48.650;9.290;2023-12-20T12:51:05;3.22;;;1.77;;
57856;SDS011;43683;48.650;9.290;2023-12-20T12:53:32;3.63;;;1.70;;
57856;SDS011;43683;48.650;9.290;2023-12-20T12:55:57;4.05;;;1.92;;
57856;SDS011;43683;48.650;9.290;2023-12-20T12:58:23;5.05;;;1.90;;
57856;SDS011;43683;48.650;9.290;2023-12-20T13:00:50;3.47;;;1.98;;
57856;SDS011;43683;48.650;9.290;2023-12-20T13:03:15;5.07;;;2.00;;
57856;SDS011;43683;48.650;9.290;2023-12-20T13:05:41;4.97;;;1.50;;
57856;SDS011;43683;48.650;9.290;2023-12-20T13:08:07;2.97;;;1.83;;
57856;SDS011;43683;48.650;9.290;2023-12-20T13:10:32;3.13;;;1.60;;
57856;SDS011;43683;48.650;9.290;2023-12-20T13:12:58;3.53;;;1.95;;
57856;SDS011;43683;48.650;9.290;2023-12-20T13:15:24;2.13;;;1.42;;
57856;SDS011;43683;48.650;9.290;2023-12-20T13:17:49;3.38;;;1.60;;
57856;SDS011;43683;48.650;9.290;2023-12-20T13:20:15;7.00;;;1.73;;
57856;SDS011;43683;48.650;9.290;2023-12-20T13:22:41;5.18;;;1.60;;
57856;SDS011;43683;48.650;9.290;2023-12-20T13:25:07;4.68;;;1.92;;
57856;SDS011;43683;48.650;9.290;2023-12-20T13:27:32;3.40;;;1.80;;
57856;SDS011;43683;48.650;9.290;2023-12-20T13:29:58;4.15;;;2.85;;
57856;SDS011;43683;48.650;9.290;2023-12-20T13:32:24;5.10;;;2.47;;
57856;SDS011;43683;48.650;9.290;2023-12-20T13:34:49;4.85;;;2.38;;
57856;SDS011;43683;48.650;9.290;2023-12-20T13:37:15;5.38;;;1.80;;
57856;SDS011;43683;48.650;9.290;2023-12-20T13:39:41;4.93;;;3.20;;
57856;SDS011;43683;48.650;9.290;2023-12-20T13:42:06;4.95;;;2.00;;
57856;SDS011;43683;48.650;9.290;2023-12-20T13:44:32;6.53;;;2.55;;
57856;SDS011;43683;48.650;9.290;2023-12-20T13:46:59;3.95;;;2.28;;
57856;SDS011;43683;48.650;9.290;2023-12-20T13:49:24;6.05;;;2.13;;
57856;SDS011;43683;48.650;9.290;2023-12-20T13:51:50;4.18;;;2.17;;
57856;SDS011;43683;48.650;9.290;2023-12-20T13:54:16;3.60;;;1.92;;
57856;SDS011;43683;48.650;9.290;2023-12-20T13:56:45;2.60;;;1.75;;
57856;SDS011;43683;48.650;9.290;2023-12-20T13:59:11;3.58;;;2.35;;
57856;SDS011;43683;48.650;9.290;2023-12-20T14:01:37;4.18;;;2.53;;
57856;SDS011;43683;48.650;9.290;2023-12-20T14:04:03;4.47;;;2.05;;
57856;SDS011;43683;48.650;9.290;2023-12-20T14:06:28;5.07;;;2.20;;
57856;SDS011;43683;48.650;9.290;2023-12-20T14:08:54;3.70;;;1.90;;
57856;SDS011;43683;48.650;9.290;2023-12-20T14:11:20;3.75;;;1.73;;
57856;SDS011;43683;48.650;9.290;2023-12-20T14:13:46;2.85;;;1.63;;
57856;SDS011;43683;48.650;9.290;2023-12-20T14:16:11;3.55;;;1.73;;
57856;SDS011;43683;48.650;9.290;2023-12-20T14:18:37;4.32;;;1.75;;
57856;SDS011;43683;48.650;9.290;2023-12-20T14:21:05;4.15;;;1.90;;
57856;SDS011;43683;48.650;9.290;2023-12-20T14:23:31;2.63;;;1.45;;
57856;SDS011;43683;48.650;9.290;2023-12-20T14:25:58;6.47;;;1.92;;
57856;SDS011;43683;48.650;9.290;2023-12-20T14:28:24;4.05;;;2.03;;
57856;SDS011;43683;48.650;9.290;2023-12-20T14:30:50;4.22;;;1.85;;
57856;SDS011;43683;48.650;9.290;2023-12-20T14:33:16;6.60;;;2.85;;
57856;SDS011;43683;48.650;9.290;2023-12-20T14:35:42;6.40;;;2.55;;
57856;SDS011;43683;48.650;9.290;2023-12-20T14:38:09;5.05;;;2.20;;
57856;SDS011;43683;48.650;9.290;2023-12-20T14:40:35;5.63;;;2.60;;
57856;SDS011;43683;48.650;9.290;2023-12-20T14:43:00;12.80;;;7.50;;
57856;SDS011;43683;48.650;9.290;2023-12-20T14:45:29;2.67;;;1.88;;
57856;SDS011;43683;48.650;9.290;2023-12-20T14:47:54;9.73;;;4.55;;